sensor_id;sensor_type;location;lat;lon;timestamp;temperature;humidity
3408;DHT22;1717;50.240;8.406;2023-04-21T00:00:57;9.30;99.90
3408;DHT22;1717;50.240;8.406;2023-04-21T00:03:24;9.30;99.90
3408;DHT22;1717;50.240;8.406;2023-04-21T00:05:54;9.30;99.90
3408;DHT22;1717;50.240;8.406;2023-04-21T00:08:23;9.40;99.90
3408;DHT22;1717;50.240;8.406;2023-04-21T00:10:50;9.30;99.90
3408;DHT22;1717;50.240;8.406;2023-04-21T00:13:17;9.30;99.90
3408;DHT22;1717;50.240;8.406;2023-04-21T00:15:45;9.30;99.90
3408;DHT22;1717;50.240;8.406;2023-04-21T00:18:12;9.40;99.90
3408;DHT22;1717;50.240;8.406;2023-04-21T00:20:39;9.40;99.90
3408;DHT22;1717;50.240;8.406;2023-04-21T00:23:07;9.40;99.90
3408;DHT22;1717;50.240;8.406;2023-04-21T00:25:35;9.40;99.90
3408;DHT22;1717;50.240;8.406;2023-04-21T00:28:02;9.50;99.90
3408;DHT22;1717;50.240;8.406;2023-04-21T00:30:29;9.50;99.90
3408;DHT22;1717;50.240;8.406;2023-04-21T00:32:57;9.40;99.90
3408;DHT22;1717;50.240;8.406;2023-04-21T00:35:24;9.30;99.90
3408;DHT22;1717;50.240;8.406;2023-04-21T00:37:51;9.30;99.90
3408;DHT22;1717;50.240;8.406;2023-04-21T00:40:18;9.20;99.90
3408;DHT22;1717;50.240;8.406;2023-04-21T00:42:45;9.10;99.90
3408;DHT22;1717;50.240;8.406;2023-04-21T00:45:12;9.10;99.90
3408;DHT22;1717;50.240;8.406;2023-04-21T00:47:39;9.10;99.90
3408;DHT22;1717;50.240;8.406;2023-04-21T00:50:09;9.00;99.90
3408;DHT22;1717;50.240;8.406;2023-04-21T00:52:36;9.00;99.90
3408;DHT22;1717;50.240;8.406;2023-04-21T00:55:05;8.90;99.90
3408;DHT22;1717;50.240;8.406;2023-04-21T00:57:32;8.90;99.90
3408;DHT22;1717;50.240;8.406;2023-04-21T01:00:01;8.90;99.90
3408;DHT22;1717;50.240;8.406;2023-04-21T01:02:30;8.80;99.90
3408;DHT22;1717;50.240;8.406;2023-04-21T01:04:57;8.80;99.90
3408;DHT22;1717;50.240;8.406;2023-04-21T01:07:26;8.70;99.90
3408;DHT22;1717;50.240;8.406;2023-04-21T01:09:53;8.70;99.90
3408;DHT22;1717;50.240;8.406;2023-04-21T01:12:20;8.70;99.90
3408;DHT22;1717;50.240;8.406;2023-04-21T01:14:47;8.60;99.90
3408;DHT22;1717;50.240;8.406;2023-04-21T01:17:15;8.60;99.90
3408;DHT22;1717;50.240;8.406;2023-04-21T01:19:43;8.50;99.90
3408;DHT22;1717;50.240;8.406;2023-04-21T01:22:12;8.50;99.90
3408;DHT22;1717;50.240;8.406;2023-04-21T01:24:41;8.50;99.90
3408;DHT22;1717;50.240;8.406;2023-04-21T01:27:09;8.50;99.90
3408;DHT22;1717;50.240;8.406;2023-04-21T01:29:37;8.40;99.90
3408;DHT22;1717;50.240;8.406;2023-04-21T01:32:05;8.40;99.90
3408;DHT22;1717;50.240;8.406;2023-04-21T01:34:33;8.30;99.90
3408;DHT22;1717;50.240;8.406;2023-04-21T01:37:00;8.30;99.90
3408;DHT22;1717;50.240;8.406;2023-04-21T01:39:28;8.30;99.90
3408;DHT22;1717;50.240;8.406;2023-04-21T01:41:55;8.30;99.90
3408;DHT22;1717;50.240;8.406;2023-04-21T01:44:24;8.20;99.90
3408;DHT22;1717;50.240;8.406;2023-04-21T01:46:51;8.20;99.90
3408;DHT22;1717;50.240;8.406;2023-04-21T01:49:18;8.10;99.90
3408;DHT22;1717;50.240;8.406;2023-04-21T01:51:45;8.10;99.90
3408;DHT22;1717;50.240;8.406;2023-04-21T01:54:12;8.10;99.90
3408;DHT22;1717;50.240;8.406;2023-04-21T01:56:41;8.10;99.90
3408;DHT22;1717;50.240;8.406;2023-04-21T01:59:08;8.10;99.90
3408;DHT22;1717;50.240;8.406;2023-04-21T02:01:34;8.20;99.90
3408;DHT22;1717;50.240;8.406;2023-04-21T02:04:02;8.30;99.90
3408;DHT22;1717;50.240;8.406;2023-04-21T02:06:29;8.20;99.90
3408;DHT22;1717;50.240;8.406;2023-04-21T02:08:56;8.20;99.90
3408;DHT22;1717;50.240;8.406;2023-04-21T02:11:23;8.20;99.90
3408;DHT22;1717;50.240;8.406;2023-04-21T02:13:52;8.10;99.90
3408;DHT22;1717;50.240;8.406;2023-04-21T02:16:19;8.10;99.90
3408;DHT22;1717;50.240;8.406;2023-04-21T02:18:46;8.20;99.90
3408;DHT22;1717;50.240;8.406;2023-04-21T02:21:13;8.30;99.90
3408;DHT22;1717;50.240;8.406;2023-04-21T02:23:40;8.10;99.90
3408;DHT22;1717;50.240;8.406;2023-04-21T02:26:07;8.10;99.90
3408;DHT22;1717;50.240;8.406;2023-04-21T02:28:33;8.10;99.90
3408;DHT22;1717;50.240;8.406;2023-04-21T02:31:02;8.00;99.90
3408;DHT22;1717;50.240;8.406;2023-04-21T02:33:29;8.00;99.90
3408;DHT22;1717;50.240;8.406;2023-04-21T02:35:57;8.00;99.90
3408;DHT22;1717;50.240;8.406;2023-04-21T02:38:24;8.00;99.90
3408;DHT22;1717;50.240;8.406;2023-04-21T02:40:50;8.10;99.90
3408;DHT22;1717;50.240;8.406;2023-04-21T02:43:17;8.00;99.90
3408;DHT22;1717;50.240;8.406;2023-04-21T02:45:44;8.00;99.90
3408;DHT22;1717;50.240;8.406;2023-04-21T02:48:13;8.00;99.90
3408;DHT22;1717;50.240;8.406;2023-04-21T02:50:41;8.10;99.90
3408;DHT22;1717;50.240;8.406;2023-04-21T02:53:08;8.10;99.90
3408;DHT22;1717;50.240;8.406;2023-04-21T02:55:35;8.10;99.90
3408;DHT22;1717;50.240;8.406;2023-04-21T02:58:01;8.10;99.90
3408;DHT22;1717;50.240;8.406;2023-04-21T03:00:28;8.20;99.90
3408;DHT22;1717;50.240;8.406;2023-04-21T03:02:55;8.30;99.90
3408;DHT22;1717;50.240;8.406;2023-04-21T03:05:23;8.40;99.90
3408;DHT22;1717;50.240;8.406;2023-04-21T03:07:50;8.50;99.90
3408;DHT22;1717;50.240;8.406;2023-04-21T03:10:17;8.50;99.90
3408;DHT22;1717;50.240;8.406;2023-04-21T03:12:44;8.40;99.90
3408;DHT22;1717;50.240;8.406;2023-04-21T03:15:11;8.40;99.90
3408;DHT22;1717;50.240;8.406;2023-04-21T03:17:38;8.40;99.90
3408;DHT22;1717;50.240;8.406;2023-04-21T03:20:06;8.40;99.90
3408;DHT22;1717;50.240;8.406;2023-04-21T03:22:35;8.40;99.90
3408;DHT22;1717;50.240;8.406;2023-04-21T03:25:02;8.30;99.90
3408;DHT22;1717;50.240;8.406;2023-04-21T03:27:30;8.20;99.90
3408;DHT22;1717;50.240;8.406;2023-04-21T03:29:58;8.10;99.90
3408;DHT22;1717;50.240;8.406;2023-04-21T03:32:24;8.20;99.90
3408;DHT22;1717;50.240;8.406;2023-04-21T03:34:51;8.30;99.90
3408;DHT22;1717;50.240;8.406;2023-04-21T03:37:20;8.30;99.90
3408;DHT22;1717;50.240;8.406;2023-04-21T03:39:48;8.40;99.90
3408;DHT22;1717;50.240;8.406;2023-04-21T03:42:15;8.50;99.90
3408;DHT22;1717;50.240;8.406;2023-04-21T03:44:42;8.50;99.90
3408;DHT22;1717;50.240;8.406;2023-04-21T03:47:09;8.60;99.90
3408;DHT22;1717;50.240;8.406;2023-04-21T03:49:35;8.70;99.90
3408;DHT22;1717;50.240;8.406;2023-04-21T03:52:02;8.60;99.90
3408;DHT22;1717;50.240;8.406;2023-04-21T03:54:29;8.60;99.90
3408;DHT22;1717;50.240;8.406;2023-04-21T03:56:58;8.60;99.90
3408;DHT22;1717;50.240;8.406;2023-04-21T03:59:24;8.70;99.90
3408;DHT22;1717;50.240;8.406;2023-04-21T04:01:51;8.60;99.90
3408;DHT22;1717;50.240;8.406;2023-04-21T04:04:18;8.60;99.90
3408;DHT22;1717;50.240;8.406;2023-04-21T04:06:45;8.60;99.90
3408;DHT22;1717;50.240;8.406;2023-04-21T04:09:12;8.50;99.90
3408;DHT22;1717;50.240;8.406;2023-04-21T04:11:38;8.50;99.90
3408;DHT22;1717;50.240;8.406;2023-04-21T04:14:07;8.50;99.90
3408;DHT22;1717;50.240;8.406;2023-04-21T04:16:34;8.50;99.90
3408;DHT22;1717;50.240;8.406;2023-04-21T04:19:01;8.50;99.90
3408;DHT22;1717;50.240;8.406;2023-04-21T04:21:28;8.40;99.90
3408;DHT22;1717;50.240;8.406;2023-04-21T04:23:57;8.30;99.90
3408;DHT22;1717;50.240;8.406;2023-04-21T04:26:24;8.20;99.90
3408;DHT22;1717;50.240;8.406;2023-04-21T04:28:51;8.30;99.90
3408;DHT22;1717;50.240;8.406;2023-04-21T04:31:22;8.30;99.90
3408;DHT22;1717;50.240;8.406;2023-04-21T04:33:49;8.20;99.90
3408;DHT22;1717;50.240;8.406;2023-04-21T04:36:16;8.20;99.90
3408;DHT22;1717;50.240;8.406;2023-04-21T04:38:43;8.20;99.90
3408;DHT22;1717;50.240;8.406;2023-04-21T04:41:10;8.20;99.90
3408;DHT22;1717;50.240;8.406;2023-04-21T04:43:37;8.20;99.90
3408;DHT22;1717;50.240;8.406;2023-04-21T04:46:04;8.10;99.90
3408;DHT22;1717;50.240;8.406;2023-04-21T04:48:34;8.20;99.90
3408;DHT22;1717;50.240;8.406;2023-04-21T04:51:01;8.20;99.90
3408;DHT22;1717;50.240;8.406;2023-04-21T04:53:28;8.20;99.90
3408;DHT22;1717;50.240;8.406;2023-04-21T04:55:55;8.30;99.90
3408;DHT22;1717;50.240;8.406;2023-04-21T04:58:23;8.40;99.90
3408;DHT22;1717;50.240;8.406;2023-04-21T05:00:50;8.40;99.90
3408;DHT22;1717;50.240;8.406;2023-04-21T05:03:17;8.30;99.90
3408;DHT22;1717;50.240;8.406;2023-04-21T05:05:45;8.40;99.90
3408;DHT22;1717;50.240;8.406;2023-04-21T05:08:12;8.40;99.90
3408;DHT22;1717;50.240;8.406;2023-04-21T05:10:38;8.50;99.90
3408;DHT22;1717;50.240;8.406;2023-04-21T05:13:05;8.50;99.90
3408;DHT22;1717;50.240;8.406;2023-04-21T05:15:32;8.50;99.90
3408;DHT22;1717;50.240;8.406;2023-04-21T05:17:59;8.50;99.90
3408;DHT22;1717;50.240;8.406;2023-04-21T05:20:26;8.50;99.90
3408;DHT22;1717;50.240;8.406;2023-04-21T05:22:54;8.50;99.90
3408;DHT22;1717;50.240;8.406;2023-04-21T05:25:20;8.40;99.90
3408;DHT22;1717;50.240;8.406;2023-04-21T05:27:47;8.40;99.90
3408;DHT22;1717;50.240;8.406;2023-04-21T05:30:14;8.40;99.90
3408;DHT22;1717;50.240;8.406;2023-04-21T05:32:41;8.50;99.90
3408;DHT22;1717;50.240;8.406;2023-04-21T05:35:08;8.60;99.90
3408;DHT22;1717;50.240;8.406;2023-04-21T05:37:35;8.60;99.90
3408;DHT22;1717;50.240;8.406;2023-04-21T05:40:03;8.60;99.90
3408;DHT22;1717;50.240;8.406;2023-04-21T05:42:30;8.50;99.90
3408;DHT22;1717;50.240;8.406;2023-04-21T05:44:57;8.50;99.90
3408;DHT22;1717;50.240;8.406;2023-04-21T05:47:24;8.50;99.90
3408;DHT22;1717;50.240;8.406;2023-04-21T05:49:51;8.60;99.90
3408;DHT22;1717;50.240;8.406;2023-04-21T05:52:18;8.50;99.90
3408;DHT22;1717;50.240;8.406;2023-04-21T05:54:45;8.40;99.90
3408;DHT22;1717;50.240;8.406;2023-04-21T05:57:14;8.40;99.90
3408;DHT22;1717;50.240;8.406;2023-04-21T05:59:42;8.40;99.90
3408;DHT22;1717;50.240;8.406;2023-04-21T06:02:09;8.30;99.90
3408;DHT22;1717;50.240;8.406;2023-04-21T06:04:36;8.30;99.90
3408;DHT22;1717;50.240;8.406;2023-04-21T06:07:04;8.10;99.90
3408;DHT22;1717;50.240;8.406;2023-04-21T06:09:32;8.10;99.90
3408;DHT22;1717;50.240;8.406;2023-04-21T06:11:59;8.20;99.90
3408;DHT22;1717;50.240;8.406;2023-04-21T06:14:27;8.20;99.90
3408;DHT22;1717;50.240;8.406;2023-04-21T06:16:54;8.20;99.90
3408;DHT22;1717;50.240;8.406;2023-04-21T06:19:21;8.20;99.90
3408;DHT22;1717;50.240;8.406;2023-04-21T06:21:48;8.20;99.90
3408;DHT22;1717;50.240;8.406;2023-04-21T06:24:15;8.30;99.90
3408;DHT22;1717;50.240;8.406;2023-04-21T06:26:49;8.30;99.90
3408;DHT22;1717;50.240;8.406;2023-04-21T06:29:16;8.40;99.90
3408;DHT22;1717;50.240;8.406;2023-04-21T06:31:44;8.50;99.90
3408;DHT22;1717;50.240;8.406;2023-04-21T06:34:11;8.70;99.90
3408;DHT22;1717;50.240;8.406;2023-04-21T06:36:38;8.70;99.90
3408;DHT22;1717;50.240;8.406;2023-04-21T06:39:05;8.70;99.90
3408;DHT22;1717;50.240;8.406;2023-04-21T06:41:32;8.70;99.90
3408;DHT22;1717;50.240;8.406;2023-04-21T06:43:59;8.80;99.90
3408;DHT22;1717;50.240;8.406;2023-04-21T06:46:26;8.90;99.90
3408;DHT22;1717;50.240;8.406;2023-04-21T06:48:54;8.90;99.90
3408;DHT22;1717;50.240;8.406;2023-04-21T06:51:21;9.00;99.90
3408;DHT22;1717;50.240;8.406;2023-04-21T06:53:48;9.10;99.90
3408;DHT22;1717;50.240;8.406;2023-04-21T06:56:15;9.20;99.90
3408;DHT22;1717;50.240;8.406;2023-04-21T06:58:42;9.30;99.90
3408;DHT22;1717;50.240;8.406;2023-04-21T07:01:11;9.40;99.90
3408;DHT22;1717;50.240;8.406;2023-04-21T07:03:38;9.50;99.90
3408;DHT22;1717;50.240;8.406;2023-04-21T07:06:07;9.60;99.90
3408;DHT22;1717;50.240;8.406;2023-04-21T07:08:34;9.80;99.90
3408;DHT22;1717;50.240;8.406;2023-04-21T07:11:01;9.90;99.90
3408;DHT22;1717;50.240;8.406;2023-04-21T07:13:28;10.00;99.90
3408;DHT22;1717;50.240;8.406;2023-04-21T07:15:55;10.20;99.90
3408;DHT22;1717;50.240;8.406;2023-04-21T07:18:22;10.20;99.90
3408;DHT22;1717;50.240;8.406;2023-04-21T07:20:49;10.30;99.90
3408;DHT22;1717;50.240;8.406;2023-04-21T07:23:18;10.40;99.90
3408;DHT22;1717;50.240;8.406;2023-04-21T07:25:45;10.50;99.90
3408;DHT22;1717;50.240;8.406;2023-04-21T07:28:12;10.60;99.90
3408;DHT22;1717;50.240;8.406;2023-04-21T07:30:39;10.80;99.90
3408;DHT22;1717;50.240;8.406;2023-04-21T07:33:06;11.00;99.90
3408;DHT22;1717;50.240;8.406;2023-04-21T07:35:33;11.00;99.90
3408;DHT22;1717;50.240;8.406;2023-04-21T07:38:00;11.10;99.90
3408;DHT22;1717;50.240;8.406;2023-04-21T07:40:29;11.30;99.90
3408;DHT22;1717;50.240;8.406;2023-04-21T07:42:56;11.40;99.90
3408;DHT22;1717;50.240;8.406;2023-04-21T07:45:24;11.50;99.90
3408;DHT22;1717;50.240;8.406;2023-04-21T07:47:51;11.60;99.90
3408;DHT22;1717;50.240;8.406;2023-04-21T07:50:18;11.60;99.90
3408;DHT22;1717;50.240;8.406;2023-04-21T07:52:45;11.70;99.90
3408;DHT22;1717;50.240;8.406;2023-04-21T07:55:12;11.70;99.90
3408;DHT22;1717;50.240;8.406;2023-04-21T07:57:40;11.80;99.90
3408;DHT22;1717;50.240;8.406;2023-04-21T08:00:08;11.80;99.90
3408;DHT22;1717;50.240;8.406;2023-04-21T08:02:36;11.90;99.90
3408;DHT22;1717;50.240;8.406;2023-04-21T08:05:02;12.00;99.90
3408;DHT22;1717;50.240;8.406;2023-04-21T08:07:29;12.00;99.90
3408;DHT22;1717;50.240;8.406;2023-04-21T08:09:56;12.10;99.90
3408;DHT22;1717;50.240;8.406;2023-04-21T08:12:24;12.20;99.90
3408;DHT22;1717;50.240;8.406;2023-04-21T08:14:53;12.30;99.90
3408;DHT22;1717;50.240;8.406;2023-04-21T08:17:20;12.30;99.90
3408;DHT22;1717;50.240;8.406;2023-04-21T08:19:47;12.20;99.90
3408;DHT22;1717;50.240;8.406;2023-04-21T08:22:13;12.30;99.90
3408;DHT22;1717;50.240;8.406;2023-04-21T08:24:40;12.40;99.90
3408;DHT22;1717;50.240;8.406;2023-04-21T08:27:07;12.40;99.90
3408;DHT22;1717;50.240;8.406;2023-04-21T08:29:34;12.50;99.90
3408;DHT22;1717;50.240;8.406;2023-04-21T08:32:02;12.60;99.90
3408;DHT22;1717;50.240;8.406;2023-04-21T08:34:29;12.60;99.90
3408;DHT22;1717;50.240;8.406;2023-04-21T08:36:56;12.70;99.90
3408;DHT22;1717;50.240;8.406;2023-04-21T08:39:24;12.80;99.90
3408;DHT22;1717;50.240;8.406;2023-04-21T08:41:51;12.80;99.90
3408;DHT22;1717;50.240;8.406;2023-04-21T08:44:19;13.00;99.90
3408;DHT22;1717;50.240;8.406;2023-04-21T08:46:47;13.00;99.90
3408;DHT22;1717;50.240;8.406;2023-04-21T08:49:18;13.10;99.90
3408;DHT22;1717;50.240;8.406;2023-04-21T08:51:46;13.20;99.90
3408;DHT22;1717;50.240;8.406;2023-04-21T08:54:13;13.20;99.90
3408;DHT22;1717;50.240;8.406;2023-04-21T08:56:40;13.20;99.90
3408;DHT22;1717;50.240;8.406;2023-04-21T08:59:07;13.30;99.90
3408;DHT22;1717;50.240;8.406;2023-04-21T09:02:08;13.30;99.90
3408;DHT22;1717;50.240;8.406;2023-04-21T09:04:38;13.40;99.90
3408;DHT22;1717;50.240;8.406;2023-04-21T09:07:05;13.40;99.90
3408;DHT22;1717;50.240;8.406;2023-04-21T09:09:45;13.50;99.90
3408;DHT22;1717;50.240;8.406;2023-04-21T09:12:17;13.50;99.90
3408;DHT22;1717;50.240;8.406;2023-04-21T09:14:44;13.60;99.90
3408;DHT22;1717;50.240;8.406;2023-04-21T09:17:13;13.70;99.90
3408;DHT22;1717;50.240;8.406;2023-04-21T09:19:42;13.80;99.90
3408;DHT22;1717;50.240;8.406;2023-04-21T09:22:13;13.90;99.90
3408;DHT22;1717;50.240;8.406;2023-04-21T09:24:44;14.00;99.90
3408;DHT22;1717;50.240;8.406;2023-04-21T09:27:14;14.00;99.90
3408;DHT22;1717;50.240;8.406;2023-04-21T09:29:45;14.10;99.90
3408;DHT22;1717;50.240;8.406;2023-04-21T09:32:16;14.20;99.90
3408;DHT22;1717;50.240;8.406;2023-04-21T09:34:45;14.30;99.90
3408;DHT22;1717;50.240;8.406;2023-04-21T09:37:13;14.40;99.90
3408;DHT22;1717;50.240;8.406;2023-04-21T09:39:45;14.50;99.90
3408;DHT22;1717;50.240;8.406;2023-04-21T09:42:12;14.60;99.90
3408;DHT22;1717;50.240;8.406;2023-04-21T09:44:39;14.60;99.90
3408;DHT22;1717;50.240;8.406;2023-04-21T09:47:09;14.60;99.90
3408;DHT22;1717;50.240;8.406;2023-04-21T09:49:38;14.70;99.90
3408;DHT22;1717;50.240;8.406;2023-04-21T09:52:11;14.80;99.90
3408;DHT22;1717;50.240;8.406;2023-04-21T09:54:47;14.90;99.90
3408;DHT22;1717;50.240;8.406;2023-04-21T09:57:19;14.90;99.90
3408;DHT22;1717;50.240;8.406;2023-04-21T09:59:52;15.00;99.90
3408;DHT22;1717;50.240;8.406;2023-04-21T10:02:24;15.00;99.90
3408;DHT22;1717;50.240;8.406;2023-04-21T10:04:52;15.10;99.90
3408;DHT22;1717;50.240;8.406;2023-04-21T10:07:21;15.10;99.90
3408;DHT22;1717;50.240;8.406;2023-04-21T10:09:51;15.10;99.90
3408;DHT22;1717;50.240;8.406;2023-04-21T10:12:19;15.10;99.90
3408;DHT22;1717;50.240;8.406;2023-04-21T10:14:49;15.20;99.90
3408;DHT22;1717;50.240;8.406;2023-04-21T10:17:17;15.20;99.90
3408;DHT22;1717;50.240;8.406;2023-04-21T10:19:49;15.30;99.90
3408;DHT22;1717;50.240;8.406;2023-04-21T10:22:25;15.30;99.90
3408;DHT22;1717;50.240;8.406;2023-04-21T10:24:54;15.40;99.90
3408;DHT22;1717;50.240;8.406;2023-04-21T10:27:33;15.40;99.90
3408;DHT22;1717;50.240;8.406;2023-04-21T10:30:00;15.40;99.90
3408;DHT22;1717;50.240;8.406;2023-04-21T10:32:35;15.50;99.90
3408;DHT22;1717;50.240;8.406;2023-04-21T10:35:08;15.50;99.80
3408;DHT22;1717;50.240;8.406;2023-04-21T10:37:37;15.50;99.60
3408;DHT22;1717;50.240;8.406;2023-04-21T10:40:05;15.50;99.50
3408;DHT22;1717;50.240;8.406;2023-04-21T10:42:35;15.60;99.40
3408;DHT22;1717;50.240;8.406;2023-04-21T10:45:09;15.60;99.40
3408;DHT22;1717;50.240;8.406;2023-04-21T10:47:39;15.70;99.50
3408;DHT22;1717;50.240;8.406;2023-04-21T10:50:19;15.70;99.60
3408;DHT22;1717;50.240;8.406;2023-04-21T10:52:53;15.80;99.30
3408;DHT22;1717;50.240;8.406;2023-04-21T10:55:21;15.80;99.20
3408;DHT22;1717;50.240;8.406;2023-04-21T10:57:49;15.90;99.00
3408;DHT22;1717;50.240;8.406;2023-04-21T11:00:18;16.00;98.90
3408;DHT22;1717;50.240;8.406;2023-04-21T11:02:56;16.00;98.90
3408;DHT22;1717;50.240;8.406;2023-04-21T11:05:28;16.00;98.90
3408;DHT22;1717;50.240;8.406;2023-04-21T11:08:17;16.00;98.80
3408;DHT22;1717;50.240;8.406;2023-04-21T11:10:48;16.10;98.60
3408;DHT22;1717;50.240;8.406;2023-04-21T11:13:15;16.10;98.60
3408;DHT22;1717;50.240;8.406;2023-04-21T11:15:55;16.10;98.50
3408;DHT22;1717;50.240;8.406;2023-04-21T11:18:32;16.20;98.30
3408;DHT22;1717;50.240;8.406;2023-04-21T11:21:06;16.30;98.40
3408;DHT22;1717;50.240;8.406;2023-04-21T11:23:37;16.30;98.40
3408;DHT22;1717;50.240;8.406;2023-04-21T11:26:05;16.40;98.50
3408;DHT22;1717;50.240;8.406;2023-04-21T11:28:32;16.50;98.30
3408;DHT22;1717;50.240;8.406;2023-04-21T11:30:59;16.50;98.00
3408;DHT22;1717;50.240;8.406;2023-04-21T11:33:27;16.60;98.00
3408;DHT22;1717;50.240;8.406;2023-04-21T11:35:55;16.60;97.80
3408;DHT22;1717;50.240;8.406;2023-04-21T11:38:24;16.60;97.70
3408;DHT22;1717;50.240;8.406;2023-04-21T11:40:52;16.60;97.80
3408;DHT22;1717;50.240;8.406;2023-04-21T11:43:20;16.70;97.70
3408;DHT22;1717;50.240;8.406;2023-04-21T11:45:50;16.60;97.40
3408;DHT22;1717;50.240;8.406;2023-04-21T11:48:18;16.70;97.30
3408;DHT22;1717;50.240;8.406;2023-04-21T11:50:48;16.60;97.30
3408;DHT22;1717;50.240;8.406;2023-04-21T11:53:16;16.70;97.50
3408;DHT22;1717;50.240;8.406;2023-04-21T11:55:44;16.70;97.20
3408;DHT22;1717;50.240;8.406;2023-04-21T11:58:13;16.70;97.40
3408;DHT22;1717;50.240;8.406;2023-04-21T12:00:43;16.70;97.40
3408;DHT22;1717;50.240;8.406;2023-04-21T12:03:12;16.80;97.40
3408;DHT22;1717;50.240;8.406;2023-04-21T12:05:39;16.80;97.40
3408;DHT22;1717;50.240;8.406;2023-04-21T12:08:12;16.80;97.10
3408;DHT22;1717;50.240;8.406;2023-04-21T12:10:43;16.90;97.20
3408;DHT22;1717;50.240;8.406;2023-04-21T12:13:10;16.90;97.40
3408;DHT22;1717;50.240;8.406;2023-04-21T12:15:43;17.00;97.40
3408;DHT22;1717;50.240;8.406;2023-04-21T12:18:12;17.00;97.30
3408;DHT22;1717;50.240;8.406;2023-04-21T12:20:48;17.10;97.20
3408;DHT22;1717;50.240;8.406;2023-04-21T12:23:15;17.10;97.10
3408;DHT22;1717;50.240;8.406;2023-04-21T12:25:42;17.20;97.00
3408;DHT22;1717;50.240;8.406;2023-04-21T12:28:10;17.20;96.90
3408;DHT22;1717;50.240;8.406;2023-04-21T12:30:38;17.30;96.90
3408;DHT22;1717;50.240;8.406;2023-04-21T12:33:06;17.30;96.90
3408;DHT22;1717;50.240;8.406;2023-04-21T12:35:33;17.30;96.80
3408;DHT22;1717;50.240;8.406;2023-04-21T12:38:00;17.30;96.90
3408;DHT22;1717;50.240;8.406;2023-04-21T12:40:27;17.40;96.60
3408;DHT22;1717;50.240;8.406;2023-04-21T12:42:54;17.40;96.70
3408;DHT22;1717;50.240;8.406;2023-04-21T12:45:21;17.50;96.60
3408;DHT22;1717;50.240;8.406;2023-04-21T12:47:49;17.60;96.60
3408;DHT22;1717;50.240;8.406;2023-04-21T12:50:17;17.70;96.60
3408;DHT22;1717;50.240;8.406;2023-04-21T12:52:44;17.80;96.60
3408;DHT22;1717;50.240;8.406;2023-04-21T12:55:11;17.90;96.70
3408;DHT22;1717;50.240;8.406;2023-04-21T12:57:39;18.10;96.40
3408;DHT22;1717;50.240;8.406;2023-04-21T13:00:07;18.10;95.70
3408;DHT22;1717;50.240;8.406;2023-04-21T13:02:36;18.10;95.70
3408;DHT22;1717;50.240;8.406;2023-04-21T13:05:06;18.20;95.60
3408;DHT22;1717;50.240;8.406;2023-04-21T13:07:34;18.10;95.20
3408;DHT22;1717;50.240;8.406;2023-04-21T13:10:02;18.10;95.20
3408;DHT22;1717;50.240;8.406;2023-04-21T13:12:29;18.10;95.30
3408;DHT22;1717;50.240;8.406;2023-04-21T13:14:56;18.10;95.30
3408;DHT22;1717;50.240;8.406;2023-04-21T13:17:23;18.10;95.00
3408;DHT22;1717;50.240;8.406;2023-04-21T13:19:50;18.10;95.10
3408;DHT22;1717;50.240;8.406;2023-04-21T13:22:19;18.10;94.90
3408;DHT22;1717;50.240;8.406;2023-04-21T13:24:46;18.10;94.70
3408;DHT22;1717;50.240;8.406;2023-04-21T13:27:12;18.00;94.60
3408;DHT22;1717;50.240;8.406;2023-04-21T13:29:39;18.00;95.20
3408;DHT22;1717;50.240;8.406;2023-04-21T13:32:07;18.00;94.50
3408;DHT22;1717;50.240;8.406;2023-04-21T13:34:34;17.90;94.80
3408;DHT22;1717;50.240;8.406;2023-04-21T13:37:01;18.00;95.00
3408;DHT22;1717;50.240;8.406;2023-04-21T13:39:30;18.00;95.00
3408;DHT22;1717;50.240;8.406;2023-04-21T13:41:57;18.10;94.50
3408;DHT22;1717;50.240;8.406;2023-04-21T13:44:24;18.10;94.80
3408;DHT22;1717;50.240;8.406;2023-04-21T13:46:51;18.10;94.60
3408;DHT22;1717;50.240;8.406;2023-04-21T13:49:18;18.10;94.50
3408;DHT22;1717;50.240;8.406;2023-04-21T13:51:46;18.10;94.20
3408;DHT22;1717;50.240;8.406;2023-04-21T13:54:13;18.10;94.90
3408;DHT22;1717;50.240;8.406;2023-04-21T13:56:42;18.20;94.50
3408;DHT22;1717;50.240;8.406;2023-04-21T13:59:09;18.30;94.90
3408;DHT22;1717;50.240;8.406;2023-04-21T14:01:39;18.40;94.50
3408;DHT22;1717;50.240;8.406;2023-04-21T14:04:06;18.50;94.20
3408;DHT22;1717;50.240;8.406;2023-04-21T14:06:33;18.50;93.80
3408;DHT22;1717;50.240;8.406;2023-04-21T14:09:00;18.60;93.20
3408;DHT22;1717;50.240;8.406;2023-04-21T14:11:29;18.70;93.50
3408;DHT22;1717;50.240;8.406;2023-04-21T14:13:57;18.70;93.20
3408;DHT22;1717;50.240;8.406;2023-04-21T14:16:24;18.80;93.20
3408;DHT22;1717;50.240;8.406;2023-04-21T14:18:51;18.80;93.50
3408;DHT22;1717;50.240;8.406;2023-04-21T14:21:17;18.90;93.50
3408;DHT22;1717;50.240;8.406;2023-04-21T14:23:44;19.00;93.40
3408;DHT22;1717;50.240;8.406;2023-04-21T14:26:11;19.00;93.10
3408;DHT22;1717;50.240;8.406;2023-04-21T14:28:38;19.10;93.40
3408;DHT22;1717;50.240;8.406;2023-04-21T14:31:07;19.10;92.40
3408;DHT22;1717;50.240;8.406;2023-04-21T14:33:34;19.20;92.50
3408;DHT22;1717;50.240;8.406;2023-04-21T14:36:01;19.30;92.90
3408;DHT22;1717;50.240;8.406;2023-04-21T14:38:28;19.30;92.70
3408;DHT22;1717;50.240;8.406;2023-04-21T14:40:56;19.40;92.00
3408;DHT22;1717;50.240;8.406;2023-04-21T14:43:23;19.40;91.40
3408;DHT22;1717;50.240;8.406;2023-04-21T14:45:51;19.40;91.10
3408;DHT22;1717;50.240;8.406;2023-04-21T14:48:20;19.50;91.70
3408;DHT22;1717;50.240;8.406;2023-04-21T14:50:47;19.60;91.20
3408;DHT22;1717;50.240;8.406;2023-04-21T14:53:13;19.50;90.60
3408;DHT22;1717;50.240;8.406;2023-04-21T14:55:40;19.60;91.20
3408;DHT22;1717;50.240;8.406;2023-04-21T14:58:07;19.60;91.20
3408;DHT22;1717;50.240;8.406;2023-04-21T15:00:35;19.70;91.20
3408;DHT22;1717;50.240;8.406;2023-04-21T15:03:02;19.70;90.60
3408;DHT22;1717;50.240;8.406;2023-04-21T15:05:30;19.80;91.10
3408;DHT22;1717;50.240;8.406;2023-04-21T15:07:59;19.80;90.50
3408;DHT22;1717;50.240;8.406;2023-04-21T15:10:26;19.90;90.30
3408;DHT22;1717;50.240;8.406;2023-04-21T15:12:54;19.90;87.90
3408;DHT22;1717;50.240;8.406;2023-04-21T15:15:22;19.90;89.30
3408;DHT22;1717;50.240;8.406;2023-04-21T15:17:49;19.90;89.00
3408;DHT22;1717;50.240;8.406;2023-04-21T15:20:16;20.00;89.90
3408;DHT22;1717;50.240;8.406;2023-04-21T15:22:45;20.00;89.70
3408;DHT22;1717;50.240;8.406;2023-04-21T15:25:12;20.00;87.90
3408;DHT22;1717;50.240;8.406;2023-04-21T15:27:39;20.00;88.10
3408;DHT22;1717;50.240;8.406;2023-04-21T15:30:07;20.10;88.30
3408;DHT22;1717;50.240;8.406;2023-04-21T15:32:34;20.10;86.80
3408;DHT22;1717;50.240;8.406;2023-04-21T15:35:01;20.10;85.50
3408;DHT22;1717;50.240;8.406;2023-04-21T15:37:28;20.10;85.40
3408;DHT22;1717;50.240;8.406;2023-04-21T15:39:56;20.10;86.50
3408;DHT22;1717;50.240;8.406;2023-04-21T15:42:24;20.10;86.80
3408;DHT22;1717;50.240;8.406;2023-04-21T15:44:51;20.10;86.80
3408;DHT22;1717;50.240;8.406;2023-04-21T15:47:18;20.20;87.20
3408;DHT22;1717;50.240;8.406;2023-04-21T15:49:45;20.20;86.20
3408;DHT22;1717;50.240;8.406;2023-04-21T15:52:12;20.20;85.30
3408;DHT22;1717;50.240;8.406;2023-04-21T15:54:39;20.20;84.50
3408;DHT22;1717;50.240;8.406;2023-04-21T15:57:07;20.20;83.60
3408;DHT22;1717;50.240;8.406;2023-04-21T15:59:34;20.20;84.00
3408;DHT22;1717;50.240;8.406;2023-04-21T16:02:01;20.20;84.00
3408;DHT22;1717;50.240;8.406;2023-04-21T16:04:28;20.20;85.10
3408;DHT22;1717;50.240;8.406;2023-04-21T16:06:56;20.20;85.40
3408;DHT22;1717;50.240;8.406;2023-04-21T16:09:22;20.20;85.70
3408;DHT22;1717;50.240;8.406;2023-04-21T16:11:49;20.20;85.80
3408;DHT22;1717;50.240;8.406;2023-04-21T16:14:18;20.30;85.50